createdAt,value
2018-11-28T00:00:22.510Z,31.67
2018-11-28T00:02:51.521Z,44.70
2018-11-28T00:05:20.522Z,37.13
2018-11-28T00:08:08.265Z,42.83
2018-11-28T00:10:37.273Z,32.13
2018-11-28T00:13:06.317Z,29.90
2018-11-28T00:15:35.314Z,38.43
2018-11-28T00:18:04.626Z,36.13
2018-11-28T00:20:33.648Z,39.97
2018-11-28T00:23:02.651Z,47.13
2018-11-28T00:25:31.686Z,33.47
2018-11-28T00:28:00.683Z,33.07
2018-11-28T00:30:29.719Z,36.57
2018-11-28T00:32:58.715Z,41.07
2018-11-28T00:35:27.763Z,40.37
2018-11-28T00:37:56.772Z,40.40
2018-11-28T00:40:25.762Z,31.57
2018-11-28T00:42:54.770Z,42.10
2018-11-28T00:45:24.603Z,39.87
2018-11-28T00:47:53.625Z,38.20
2018-11-28T00:50:26.819Z,28.97
2018-11-28T00:52:55.830Z,37.53
2018-11-28T00:55:24.840Z,47.50
2018-11-28T00:57:53.860Z,38.43
2018-11-28T01:00:26.999Z,40.97
2018-11-28T01:02:56.010Z,36.07
2018-11-28T01:05:25.071Z,25.43
2018-11-28T01:07:54.973Z,43.40
2018-11-28T01:10:24.807Z,38.83
2018-11-28T01:12:54.290Z,50.23
2018-11-28T01:15:23.291Z,36.03
2018-11-28T01:17:52.291Z,36.30
2018-11-28T01:20:22.349Z,46.57
2018-11-28T01:22:51.403Z,47.77
2018-11-28T01:25:21.207Z,32.70
2018-11-28T01:27:50.550Z,47.73
2018-11-28T01:30:23.439Z,42.43
2018-11-28T01:32:53.536Z,44.30
2018-11-28T01:35:22.955Z,47.67
2018-11-28T01:37:51.970Z,44.07
2018-11-28T01:40:23.137Z,43.90
2018-11-28T01:42:52.422Z,41.43
2018-11-28T01:45:22.584Z,39.87
2018-11-28T01:47:51.664Z,46.40
2018-11-28T01:50:21.380Z,44.07
2018-11-28T01:52:50.553Z,53.13
2018-11-28T01:55:20.753Z,48.00
2018-11-28T01:57:49.789Z,49.10
2018-11-28T02:00:22.643Z,50.50
2018-11-28T02:02:54.730Z,42.93
2018-11-28T02:05:23.754Z,50.90
2018-11-28T02:07:52.910Z,48.60
2018-11-28T02:10:21.959Z,45.40
2018-11-28T02:12:50.996Z,38.23
2018-11-28T02:15:24.499Z,49.00
2018-11-28T02:17:53.660Z,44.23
2018-11-28T02:20:22.655Z,49.33
2018-11-28T02:22:51.692Z,35.43
2018-11-28T02:25:20.687Z,37.07
2018-11-28T02:27:49.717Z,47.50
2018-11-28T02:30:19.637Z,51.77
2018-11-28T02:32:49.403Z,40.43
2018-11-28T02:35:18.999Z,45.67
2018-11-28T02:37:48.664Z,38.30
2018-11-28T02:40:19.244Z,48.33
2018-11-28T02:42:49.206Z,48.90
2018-11-28T02:45:21.982Z,46.07
2018-11-28T02:47:51.840Z,29.80
2018-11-28T02:50:20.942Z,41.17
2018-11-28T02:52:49.945Z,36.27
2018-11-28T02:55:19.066Z,41.63
2018-11-28T02:57:48.976Z,34.50
2018-11-28T03:00:20.098Z,45.70
2018-11-28T03:02:49.162Z,41.93
2018-11-28T03:05:18.353Z,44.83
2018-11-28T03:07:47.444Z,33.47
2018-11-28T03:10:18.326Z,48.30
2018-11-28T03:12:47.377Z,37.43
2018-11-28T03:15:28.003Z,44.67
2018-11-28T03:17:57.047Z,48.80
2018-11-28T03:20:26.052Z,46.93
2018-11-28T03:22:55.078Z,37.40
2018-11-28T03:25:24.112Z,48.40
2018-11-28T03:27:53.164Z,43.30
2018-11-28T03:30:22.203Z,43.70
2018-11-28T03:32:51.240Z,44.37
2018-11-28T03:35:21.786Z,40.67
2018-11-28T03:37:49.303Z,39.80
2018-11-28T03:40:18.384Z,36.97
2018-11-28T03:42:47.408Z,45.90
2018-11-28T03:45:16.861Z,41.20
2018-11-28T03:47:46.112Z,36.73
2018-11-28T03:50:15.693Z,36.10
2018-11-28T03:52:44.687Z,41.17
2018-11-28T03:55:14.472Z,39.73
2018-11-28T03:57:44.576Z,40.87
2018-11-28T04:00:15.555Z,40.20
2018-11-28T04:02:44.642Z,50.00
2018-11-28T04:05:13.757Z,45.90
2018-11-28T04:07:42.799Z,40.83
2018-11-28T04:10:13.750Z,48.97
2018-11-28T04:12:43.400Z,36.83
2018-11-28T04:15:16.458Z,41.87
2018-11-28T04:17:45.554Z,34.40
2018-11-28T04:20:16.295Z,36.80
2018-11-28T04:22:45.354Z,32.00
2018-11-28T04:25:15.103Z,41.90
2018-11-28T04:27:44.135Z,42.23
2018-11-28T04:30:18.010Z,38.90
2018-11-28T04:32:47.552Z,42.00
2018-11-28T04:35:16.647Z,43.30
2018-11-28T04:37:45.996Z,43.63
2018-11-28T04:40:16.732Z,43.00
2018-11-28T04:42:46.208Z,40.87
2018-11-28T04:45:16.203Z,48.20
2018-11-28T04:47:45.220Z,40.37
2018-11-28T04:50:14.293Z,38.60
2018-11-28T04:52:43.303Z,27.97
2018-11-28T04:55:19.685Z,48.23
2018-11-28T04:57:48.839Z,29.97
2018-11-28T05:00:20.868Z,31.97
2018-11-28T05:02:50.014Z,34.03
2018-11-28T05:05:19.072Z,47.13
2018-11-28T05:07:48.818Z,32.37
2018-11-28T05:10:33.791Z,38.57
2018-11-28T05:13:02.795Z,39.83
2018-11-28T05:15:32.765Z,42.20
2018-11-28T05:18:01.794Z,33.90
2018-11-28T05:20:31.851Z,45.00
2018-11-28T05:23:00.855Z,40.90
2018-11-28T05:25:29.892Z,34.90
2018-11-28T05:27:59.303Z,43.43
2018-11-28T05:30:29.247Z,40.77
2018-11-28T05:32:58.403Z,41.03
2018-11-28T05:35:31.372Z,36.53
2018-11-28T05:38:00.675Z,41.70
2018-11-28T05:40:29.713Z,38.67
2018-11-28T05:42:58.764Z,38.63
2018-11-28T05:45:27.775Z,46.30
2018-11-28T05:47:56.851Z,35.53
2018-11-28T05:50:25.870Z,42.37
2018-11-28T05:52:54.906Z,33.07
2018-11-28T05:55:23.954Z,41.60
2018-11-28T05:57:52.990Z,40.93
2018-11-28T06:00:32.148Z,50.50
2018-11-28T06:03:01.227Z,40.73
2018-11-28T06:05:30.246Z,34.67
2018-11-28T06:07:59.286Z,44.80
2018-11-28T06:10:28.303Z,37.00
2018-11-28T06:12:57.388Z,35.60
2018-11-28T06:15:26.467Z,37.37
2018-11-28T06:17:55.496Z,38.03
2018-11-28T06:20:24.526Z,40.10
2018-11-28T06:22:53.532Z,53.87
2018-11-28T06:25:22.570Z,34.07
2018-11-28T06:27:51.896Z,47.17
2018-11-28T06:30:21.179Z,41.83
2018-11-28T06:32:51.468Z,32.57
2018-11-28T06:35:19.202Z,42.60
2018-11-28T06:37:48.278Z,39.17
2018-11-28T06:40:23.572Z,41.60
2018-11-28T06:42:48.033Z,37.90
2018-11-28T06:45:19.071Z,46.80
2018-11-28T06:47:48.096Z,44.10
2018-11-28T06:50:18.038Z,42.73
2018-11-28T06:52:49.047Z,41.03
2018-11-28T06:55:20.069Z,37.93
2018-11-28T06:57:49.115Z,40.53
2018-11-28T07:00:20.963Z,46.83
2018-11-28T07:02:50.899Z,51.03
2018-11-28T07:05:20.303Z,44.30
2018-11-28T07:07:49.480Z,51.27
2018-11-28T07:10:19.471Z,39.67
2018-11-28T07:12:48.543Z,41.40
2018-11-28T07:15:19.664Z,38.50
2018-11-28T07:17:48.703Z,39.77
2018-11-28T07:20:17.912Z,40.33
2018-11-28T07:22:46.975Z,43.00
2018-11-28T07:25:17.674Z,31.90
2018-11-28T07:27:47.630Z,56.70
2018-11-28T07:30:18.668Z,33.83
2018-11-28T07:32:48.279Z,49.23
2018-11-28T07:35:17.402Z,43.30
2018-11-28T07:37:46.447Z,49.77
2018-11-28T07:40:17.682Z,43.53
2018-11-28T07:43:19.112Z,44.47
2018-11-28T07:45:49.520Z,46.27
2018-11-28T07:48:18.543Z,42.07
2018-11-28T07:50:47.667Z,45.53
2018-11-28T07:53:16.744Z,37.20
2018-11-28T07:55:45.770Z,40.63
2018-11-28T07:58:14.779Z,32.67
2018-11-28T08:00:43.856Z,34.00
2018-11-28T08:03:12.859Z,33.20
2018-11-28T08:05:41.910Z,38.03
2018-11-28T08:08:11.369Z,37.10
2018-11-28T08:10:40.458Z,36.20
2018-11-28T08:13:09.933Z,34.53
2018-11-28T08:15:39.016Z,39.67
2018-11-28T08:18:08.030Z,41.10
2018-11-28T08:20:37.108Z,37.00
2018-11-28T08:23:06.166Z,46.00
2018-11-28T08:25:35.267Z,42.43
2018-11-28T08:28:04.382Z,33.00
2018-11-28T08:30:33.379Z,42.43
2018-11-28T08:33:02.455Z,34.93
2018-11-28T08:35:31.478Z,42.17
2018-11-28T08:38:00.526Z,44.87
2018-11-28T08:40:29.579Z,48.40
2018-11-28T08:42:58.858Z,43.43
2018-11-28T08:45:27.869Z,36.17
2018-11-28T08:47:58.003Z,39.80
2018-11-28T08:50:33.580Z,44.03
2018-11-28T08:53:02.613Z,53.70
2018-11-28T08:55:31.669Z,40.40
2018-11-28T08:58:00.680Z,44.43
2018-11-28T09:00:29.720Z,37.17
2018-11-28T09:02:58.958Z,47.23
2018-11-28T09:05:28.000Z,36.83
2018-11-28T09:07:57.041Z,35.93
2018-11-28T09:10:26.108Z,40.60
2018-11-28T09:12:55.134Z,44.97
2018-11-28T09:15:28.156Z,41.77
2018-11-28T09:17:57.547Z,44.57
2018-11-28T09:20:26.599Z,49.27
2018-11-28T09:22:55.642Z,42.77
2018-11-28T09:25:24.707Z,36.47
2018-11-28T09:27:55.860Z,51.23
2018-11-28T09:30:24.871Z,41.27
2018-11-28T09:32:53.916Z,41.87
2018-11-28T09:35:22.937Z,47.00
2018-11-28T09:37:51.962Z,41.57
2018-11-28T09:40:28.982Z,32.70
2018-11-28T09:42:58.863Z,46.63
2018-11-28T09:45:28.044Z,36.10
2018-11-28T09:47:57.092Z,41.00
2018-11-28T09:50:26.714Z,41.00
2018-11-28T09:52:55.764Z,44.80
2018-11-28T09:55:27.795Z,34.37
2018-11-28T09:57:57.423Z,45.17
2018-11-28T10:00:27.299Z,43.10
2018-11-28T10:03:00.198Z,35.23
2018-11-28T10:05:30.131Z,37.47
2018-11-28T10:07:59.263Z,41.20
2018-11-28T10:10:28.373Z,47.83
2018-11-28T10:12:57.456Z,32.17
2018-11-28T10:15:27.348Z,47.80
2018-11-28T10:18:03.318Z,44.80
2018-11-28T10:20:32.332Z,32.93
2018-11-28T10:23:01.363Z,32.47
2018-11-28T10:25:30.414Z,39.20
2018-11-28T10:28:01.772Z,45.13
2018-11-28T10:30:31.962Z,30.73
2018-11-28T10:33:00.962Z,37.30
2018-11-28T10:35:30.113Z,36.97
2018-11-28T10:37:59.150Z,34.07
2018-11-28T10:40:28.203Z,38.07
2018-11-28T10:42:58.418Z,34.83
2018-11-28T10:45:29.022Z,36.17
2018-11-28T10:47:58.265Z,28.53
2018-11-28T10:50:27.364Z,32.87
2018-11-28T10:52:56.353Z,32.00
2018-11-28T10:55:26.142Z,31.67
2018-11-28T10:57:55.239Z,44.20
2018-11-28T11:00:31.704Z,41.53
2018-11-28T11:03:06.003Z,32.77
2018-11-28T11:05:40.236Z,28.73
2018-11-28T11:08:15.252Z,32.77
2018-11-28T11:10:49.802Z,28.07
2018-11-28T11:13:24.058Z,30.10
2018-11-28T11:15:57.876Z,28.73
2018-11-28T11:18:27.698Z,28.60
2018-11-28T11:20:56.724Z,30.10
2018-11-28T11:23:26.340Z,42.87
2018-11-28T11:25:55.814Z,30.73
2018-11-28T11:28:24.888Z,27.60
2018-11-28T11:30:53.876Z,37.57
2018-11-28T11:33:22.958Z,37.40
2018-11-28T11:35:52.014Z,24.30
2018-11-28T11:38:21.064Z,36.37
2018-11-28T11:40:51.177Z,31.03
2018-11-28T11:43:20.179Z,35.10
2018-11-28T11:45:49.311Z,39.83
2018-11-28T11:48:18.323Z,29.07
2018-11-28T11:50:47.359Z,29.60
2018-11-28T11:53:16.395Z,32.30
2018-11-28T11:55:45.412Z,25.83
2018-11-28T11:58:14.433Z,34.67
2018-11-28T12:00:44.899Z,35.03
2018-11-28T12:03:14.540Z,29.03
2018-11-28T12:05:47.052Z,32.87
2018-11-28T12:08:16.126Z,26.10
2018-11-28T12:10:45.118Z,24.87
2018-11-28T12:13:14.184Z,33.77
2018-11-28T12:15:43.186Z,28.40
2018-11-28T12:18:16.615Z,24.80
2018-11-28T12:20:47.215Z,32.13
2018-11-28T12:23:16.262Z,39.73
2018-11-28T12:25:45.346Z,23.83
2018-11-28T12:28:14.399Z,32.43
2018-11-28T12:30:43.463Z,30.90
2018-11-28T12:33:12.559Z,31.03
2018-11-28T12:35:41.603Z,30.83
2018-11-28T12:38:10.653Z,31.90
2018-11-28T12:40:39.840Z,31.07
2018-11-28T12:43:09.851Z,26.77
2018-11-28T12:45:41.575Z,27.83
2018-11-28T12:48:10.580Z,37.17
2018-11-28T12:50:40.304Z,26.97
2018-11-28T12:53:10.789Z,27.13
2018-11-28T12:55:39.869Z,27.57
2018-11-28T12:58:11.672Z,27.63
2018-11-28T13:00:40.715Z,29.93
2018-11-28T13:03:11.086Z,27.67
2018-11-28T13:05:40.202Z,30.00
2018-11-28T13:08:09.718Z,29.63
2018-11-28T13:10:40.113Z,36.37
2018-11-28T13:13:10.160Z,41.63
2018-11-28T13:15:39.486Z,25.60
2018-11-28T13:18:10.407Z,24.57
2018-11-28T13:20:40.528Z,24.97
2018-11-28T13:23:10.652Z,23.83
2018-11-28T13:25:39.732Z,29.37
2018-11-28T13:28:08.825Z,27.67
2018-11-28T13:30:38.207Z,25.00
2018-11-28T13:33:08.303Z,28.00
2018-11-28T13:35:37.354Z,29.43
2018-11-28T13:38:08.857Z,20.83
2018-11-28T13:40:37.874Z,23.93
2018-11-28T13:43:07.055Z,21.73
2018-11-28T13:45:39.371Z,22.77
2018-11-28T13:48:08.397Z,28.00
2018-11-28T13:50:37.446Z,26.80
2018-11-28T13:53:08.727Z,23.17
2018-11-28T13:55:42.048Z,26.43
2018-11-28T13:58:09.703Z,34.30
2018-11-28T14:00:38.744Z,22.93
2018-11-28T14:03:07.783Z,17.70
2018-11-28T14:05:36.902Z,28.73
2018-11-28T14:08:06.275Z,22.87
2018-11-28T14:10:35.347Z,23.73
2018-11-28T14:13:04.467Z,31.70
2018-11-28T14:15:33.520Z,23.77
2018-11-28T14:18:04.579Z,20.53
2018-11-28T14:20:33.598Z,32.53
2018-11-28T14:23:02.668Z,21.00
2018-11-28T14:25:31.789Z,27.83
2018-11-28T14:28:00.886Z,29.10
2018-11-28T14:30:29.887Z,25.03
2018-11-28T14:32:58.935Z,28.47
2018-11-28T14:35:28.065Z,21.67
2018-11-28T14:37:57.104Z,22.50
2018-11-28T14:40:26.169Z,24.63
2018-11-28T14:42:57.030Z,31.03
2018-11-28T14:45:26.588Z,20.10
2018-11-28T14:47:55.712Z,26.30
2018-11-28T14:50:28.531Z,26.93
2018-11-28T14:53:02.474Z,20.83
2018-11-28T14:55:39.445Z,22.67
2018-11-28T14:58:09.902Z,21.63
2018-11-28T15:00:38.974Z,25.20
2018-11-28T15:03:13.351Z,25.10
2018-11-28T15:05:53.386Z,19.87
2018-11-28T15:08:22.490Z,28.07
2018-11-28T15:10:58.319Z,21.70
2018-11-28T15:13:27.375Z,20.73
2018-11-28T15:15:56.432Z,24.50
2018-11-28T15:18:25.466Z,22.20
2018-11-28T15:20:54.591Z,21.83
2018-11-28T15:23:23.739Z,30.43
2018-11-28T15:25:52.807Z,28.43
2018-11-28T15:28:21.827Z,25.07
2018-11-28T15:30:50.979Z,20.87
2018-11-28T15:33:29.196Z,21.97
2018-11-28T15:36:01.293Z,32.63
2018-11-28T15:38:30.310Z,25.10
2018-11-28T15:40:59.387Z,24.53
2018-11-28T15:43:28.463Z,28.23
2018-11-28T15:45:57.544Z,31.43
2018-11-28T15:48:26.589Z,22.30
2018-11-28T15:50:55.606Z,20.60
2018-11-28T15:53:24.651Z,24.50
2018-11-28T15:55:53.740Z,23.67
2018-11-28T15:58:22.814Z,25.97
2018-11-28T16:00:51.955Z,24.83
2018-11-28T16:03:20.999Z,32.10
2018-11-28T16:05:50.071Z,24.73
2018-11-28T16:08:19.139Z,31.30
2018-11-28T16:10:48.223Z,28.43
2018-11-28T16:13:18.473Z,19.77
2018-11-28T16:15:56.341Z,22.97
2018-11-28T16:18:25.450Z,24.50
2018-11-28T16:20:54.675Z,28.47
2018-11-28T16:23:23.775Z,24.40
2018-11-28T16:25:52.838Z,27.37
2018-11-28T16:28:21.905Z,23.40
2018-11-28T16:30:51.084Z,32.17
2018-11-28T16:33:20.165Z,32.33
2018-11-28T16:35:49.289Z,32.87
2018-11-28T16:38:18.372Z,32.60
2018-11-28T16:40:47.439Z,28.87
2018-11-28T16:43:16.591Z,32.00
2018-11-28T16:45:45.643Z,32.90
2018-11-28T16:48:14.718Z,37.90
2018-11-28T16:50:43.770Z,28.67
2018-11-28T16:53:12.874Z,30.90
2018-11-28T16:55:41.887Z,40.27
2018-11-28T16:58:11.013Z,37.47
2018-11-28T17:00:41.552Z,34.13
2018-11-28T17:03:10.639Z,36.47
2018-11-28T17:05:39.672Z,27.93
2018-11-28T17:08:09.556Z,47.13
2018-11-28T17:10:38.642Z,41.17
2018-11-28T17:13:07.883Z,30.27
2018-11-28T17:15:36.977Z,44.20
2018-11-28T17:18:06.615Z,40.97
2018-11-28T17:20:36.723Z,42.47
2018-11-28T17:23:06.712Z,40.13
2018-11-28T17:25:36.431Z,31.47
2018-11-28T17:28:05.730Z,37.53
2018-11-28T17:30:34.805Z,36.90
2018-11-28T17:33:03.882Z,48.73
2018-11-28T17:35:33.037Z,39.83
2018-11-28T17:38:02.099Z,33.43
2018-11-28T17:40:31.152Z,46.93
2018-11-28T17:43:00.368Z,49.00
2018-11-28T17:45:29.943Z,40.60
2018-11-28T17:47:59.057Z,56.63
2018-11-28T17:50:28.156Z,39.03
2018-11-28T17:53:10.509Z,37.80
2018-11-28T17:55:46.043Z,44.30
2018-11-28T17:58:15.145Z,51.30
2018-11-28T18:00:44.256Z,48.37
2018-11-28T18:03:13.332Z,36.00
2018-11-28T18:05:42.384Z,44.93
2018-11-28T18:08:11.483Z,39.20
2018-11-28T18:10:40.527Z,48.50
2018-11-28T18:13:12.564Z,46.50
2018-11-28T18:15:44.652Z,47.03
2018-11-28T18:18:16.047Z,35.80
2018-11-28T18:20:49.911Z,55.37
2018-11-28T18:23:14.376Z,38.57
2018-11-28T18:25:44.118Z,39.43
2018-11-28T18:28:13.187Z,42.97
2018-11-28T18:30:42.238Z,52.70
2018-11-28T18:33:12.304Z,41.70
2018-11-28T18:35:41.438Z,39.20
2018-11-28T18:38:10.528Z,41.00
2018-11-28T18:40:39.621Z,41.73
2018-11-28T18:43:09.483Z,42.97
2018-11-28T18:45:47.819Z,45.03
2018-11-28T18:48:16.955Z,35.73
2018-11-28T18:50:46.036Z,39.93
2018-11-28T18:53:15.182Z,40.60
2018-11-28T18:55:44.266Z,37.10
2018-11-28T18:58:13.805Z,36.57
2018-11-28T19:00:42.927Z,41.77
2018-11-28T19:03:11.977Z,31.23
2018-11-28T19:05:41.046Z,30.33
2018-11-28T19:08:10.095Z,33.10
2018-11-28T19:10:39.146Z,35.17
2018-11-28T19:13:08.180Z,37.70
2018-11-28T19:15:37.254Z,30.10
2018-11-28T19:18:06.590Z,39.70
2018-11-28T19:20:35.693Z,27.67
2018-11-28T19:23:04.736Z,31.47
2018-11-28T19:25:33.851Z,28.83
2018-11-28T19:28:02.886Z,31.10
2018-11-28T19:30:34.908Z,33.00
2018-11-28T19:33:04.104Z,30.03
2018-11-28T19:35:33.219Z,29.23
2018-11-28T19:38:02.335Z,34.60
2018-11-28T19:40:42.282Z,24.30
2018-11-28T19:43:11.394Z,26.90
2018-11-28T19:45:40.472Z,26.50
2018-11-28T19:48:09.532Z,33.37
2018-11-28T19:50:38.581Z,18.53
2018-11-28T19:53:08.449Z,26.63
2018-11-28T19:55:37.653Z,25.30
2018-11-28T19:58:07.373Z,32.43
2018-11-28T20:00:37.346Z,32.33
2018-11-28T20:03:06.773Z,35.30
2018-11-28T20:05:36.058Z,35.27
2018-11-28T20:08:05.145Z,29.13
2018-11-28T20:10:34.386Z,25.37
2018-11-28T20:13:03.503Z,26.73
2018-11-28T20:15:32.935Z,25.23
2018-11-28T20:18:01.990Z,26.77
2018-11-28T20:20:31.028Z,29.33
2018-11-28T20:23:00.091Z,30.03
2018-11-28T20:25:29.201Z,24.73
2018-11-28T20:27:59.316Z,21.37
2018-11-28T20:30:43.292Z,24.30
2018-11-28T20:33:13.384Z,25.87
2018-11-28T20:35:43.395Z,23.57
2018-11-28T20:38:24.282Z,25.50
2018-11-28T20:40:53.384Z,24.00
2018-11-28T20:43:22.427Z,22.00
2018-11-28T20:45:51.474Z,22.30
2018-11-28T20:48:20.482Z,22.17
2018-11-28T20:50:50.082Z,29.67
2018-11-28T20:53:20.133Z,19.33
2018-11-28T20:55:49.241Z,19.57
2018-11-28T20:58:18.279Z,16.73
2018-11-28T21:00:47.439Z,18.07
2018-11-28T21:03:16.523Z,14.37
2018-11-28T21:05:45.587Z,17.93
2018-11-28T21:08:14.680Z,22.13
2018-11-28T21:10:43.808Z,21.83
2018-11-28T21:13:13.478Z,21.93
2018-11-28T21:15:44.793Z,22.07
2018-11-28T21:18:14.369Z,18.93
2018-11-28T21:20:44.871Z,20.53
2018-11-28T21:23:15.203Z,18.50
2018-11-28T21:25:44.222Z,14.70
2018-11-28T21:28:13.356Z,20.03
2018-11-28T21:30:42.531Z,17.17
2018-11-28T21:33:13.061Z,17.00
2018-11-28T21:35:44.263Z,14.77
2018-11-28T21:38:13.307Z,15.87
2018-11-28T21:40:42.372Z,21.57
2018-11-28T21:43:11.395Z,23.40
2018-11-28T21:45:40.483Z,16.53
2018-11-28T21:48:09.541Z,22.63
2018-11-28T21:50:38.574Z,18.37
2018-11-28T21:53:08.811Z,20.47
2018-11-28T21:55:37.952Z,17.57
2018-11-28T21:58:06.994Z,19.77
2018-11-28T22:00:36.848Z,13.60
2018-11-28T22:03:07.330Z,16.43
2018-11-28T22:05:36.395Z,14.40
2018-11-28T22:08:05.466Z,14.40
2018-11-28T22:10:34.516Z,22.10
2018-11-28T22:13:03.620Z,23.73
2018-11-28T22:15:32.682Z,20.57
2018-11-28T22:18:01.719Z,21.00
2018-11-28T22:20:30.743Z,12.90
2018-11-28T22:22:59.771Z,16.33
2018-11-28T22:25:28.786Z,13.90
2018-11-28T22:27:57.819Z,15.20
2018-11-28T22:30:28.445Z,16.93
2018-11-28T22:32:57.915Z,13.40
2018-11-28T22:35:27.022Z,22.00
2018-11-28T22:37:56.105Z,14.97
2018-11-28T22:40:27.154Z,21.63
2018-11-28T22:42:56.201Z,13.10
2018-11-28T22:45:33.186Z,20.73
2018-11-28T22:48:02.207Z,16.50
2018-11-28T22:50:31.214Z,14.13
2018-11-28T22:53:00.218Z,17.33
2018-11-28T22:55:29.251Z,19.03
2018-11-28T22:57:58.275Z,15.73
2018-11-28T23:00:32.783Z,15.50
2018-11-28T23:03:06.882Z,16.00
2018-11-28T23:05:40.014Z,13.13
2018-11-28T23:08:09.876Z,13.50
2018-11-28T23:10:39.206Z,13.07
2018-11-28T23:13:09.278Z,13.43
2018-11-28T23:15:38.322Z,13.93
2018-11-28T23:18:08.103Z,16.20
2018-11-28T23:20:37.276Z,14.37
2018-11-28T23:23:07.366Z,16.47
2018-11-28T23:25:36.699Z,19.60
2018-11-28T23:28:06.154Z,18.80
2018-11-28T23:30:35.362Z,16.90
2018-11-28T23:33:04.965Z,17.67
2018-11-28T23:35:34.138Z,19.17
2018-11-28T23:38:03.164Z,14.87
2018-11-28T23:40:32.169Z,19.93
2018-11-28T23:43:01.170Z,17.67
2018-11-28T23:45:30.503Z,15.97
2018-11-28T23:47:59.501Z,17.60
2018-11-28T23:50:28.514Z,13.47
2018-11-28T23:52:57.554Z,11.60
2018-11-28T23:55:27.439Z,15.90
2018-11-28T23:57:56.592Z,13.50
